createdAt,value
2023-03-06T00:01:59.261Z,100.00
2023-03-06T00:07:06.648Z,100.00
2023-03-06T00:12:12.875Z,100.00
2023-03-06T00:17:20.834Z,100.00
2023-03-06T00:22:26.342Z,100.00
2023-03-06T00:27:31.359Z,100.00
2023-03-06T00:32:40.181Z,100.00
2023-03-06T00:37:45.789Z,100.00
2023-03-06T00:42:51.807Z,100.00
2023-03-06T00:48:00.491Z,100.00
2023-03-06T00:53:05.619Z,100.00
2023-03-06T00:58:10.586Z,100.00
2023-03-06T01:03:21.254Z,100.00
2023-03-06T01:08:28.329Z,100.00
2023-03-06T01:13:34.885Z,100.00
2023-03-06T01:18:43.041Z,100.00
2023-03-06T01:23:48.040Z,100.00
2023-03-06T01:28:54.530Z,100.00
2023-03-06T01:34:02.428Z,100.00
2023-03-06T01:39:07.744Z,100.00
2023-03-06T01:44:13.903Z,100.00
2023-03-06T01:49:24.047Z,100.00
2023-03-06T01:54:33.879Z,100.00
2023-03-06T01:59:43.071Z,100.00
2023-03-06T02:04:51.536Z,100.00
2023-03-06T02:10:00.690Z,100.00
2023-03-06T02:15:07.045Z,100.00
2023-03-06T02:20:23.257Z,100.00
2023-03-06T02:25:40.800Z,100.00
2023-03-06T02:30:49.110Z,100.00
2023-03-06T02:35:56.427Z,100.00
2023-03-06T02:41:06.774Z,100.00
2023-03-06T02:46:11.802Z,100.00
2023-03-06T02:51:17.049Z,100.00
2023-03-06T02:56:25.114Z,100.00
2023-03-06T03:01:30.454Z,100.00
2023-03-06T03:06:35.630Z,100.00
2023-03-06T03:11:43.733Z,100.00
2023-03-06T03:16:48.745Z,100.00
2023-03-06T03:21:53.752Z,100.00
2023-03-06T03:27:06.999Z,100.00
2023-03-06T03:32:12.471Z,100.00
2023-03-06T03:37:21.877Z,100.00
2023-03-06T03:42:29.504Z,100.00
2023-03-06T03:47:37.882Z,100.00
2023-03-06T03:52:43.831Z,100.00
2023-03-06T03:57:53.016Z,100.00
2023-03-06T04:02:58.178Z,100.00
2023-03-06T04:08:11.410Z,100.00
2023-03-06T04:13:23.122Z,100.00
2023-03-06T04:18:29.419Z,100.00
2023-03-06T04:23:38.422Z,100.00
2023-03-06T04:28:46.826Z,100.00
2023-03-06T04:33:52.937Z,100.00
2023-03-06T04:38:58.297Z,100.00
2023-03-06T04:44:06.988Z,100.00
2023-03-06T04:49:15.362Z,100.00
2023-03-06T04:54:20.287Z,100.00
2023-03-06T04:59:28.305Z,100.00
2023-03-06T05:04:33.637Z,100.00
2023-03-06T05:09:39.328Z,100.00
2023-03-06T05:14:49.062Z,100.00
2023-03-06T05:19:55.094Z,100.00
2023-03-06T05:25:00.688Z,100.00
2023-03-06T05:30:10.031Z,100.00
2023-03-06T05:35:21.223Z,100.00
2023-03-06T05:40:26.160Z,100.00
2023-03-06T05:45:33.752Z,100.00
2023-03-06T05:50:43.853Z,100.00
2023-03-06T05:55:48.784Z,100.00
2023-03-06T06:00:56.896Z,100.00
2023-03-06T06:06:02.387Z,100.00
2023-03-06T06:11:14.173Z,100.00
2023-03-06T06:16:23.024Z,100.00
2023-03-06T06:21:28.744Z,100.00
2023-03-06T06:26:36.494Z,100.00
2023-03-06T06:31:47.776Z,100.00
2023-03-06T06:36:54.464Z,100.00
2023-03-06T06:42:15.408Z,100.00
2023-03-06T06:47:30.595Z,100.00
2023-03-06T06:52:37.592Z,100.00
2023-03-06T06:57:51.829Z,100.00
2023-03-06T07:03:04.977Z,100.00
2023-03-06T07:08:10.098Z,100.00
2023-03-06T07:13:16.387Z,100.00
2023-03-06T07:18:30.213Z,100.00
2023-03-06T07:23:35.476Z,100.00
2023-03-06T07:28:52.076Z,100.00
2023-03-06T07:34:01.905Z,100.00
2023-03-06T07:39:08.136Z,99.38
2023-03-06T07:44:17.089Z,98.92
2023-03-06T07:49:25.332Z,98.73
2023-03-06T07:54:36.356Z,96.50
2023-03-06T07:59:42.180Z,97.38
2023-03-06T08:04:57.734Z,95.87
2023-03-06T08:10:02.794Z,94.42
2023-03-06T08:15:08.961Z,93.75
2023-03-06T08:20:18.693Z,94.52
2023-03-06T08:25:25.072Z,94.16
2023-03-06T08:30:30.491Z,94.00
2023-03-06T08:35:38.371Z,91.56
2023-03-06T08:40:46.669Z,91.03
2023-03-06T08:45:55.216Z,91.95
2023-03-06T08:51:02.926Z,91.75
2023-03-06T08:56:08.746Z,92.32
2023-03-06T09:01:17.206Z,92.90
2023-03-06T09:06:28.542Z,93.18
2023-03-06T09:11:35.462Z,93.50
2023-03-06T09:16:40.723Z,96.28
2023-03-06T09:21:49.755Z,94.15
2023-03-06T09:26:54.736Z,94.61
2023-03-06T09:31:59.785Z,95.86
2023-03-06T09:37:07.964Z,96.60
2023-03-06T09:42:20.279Z,99.18
2023-03-06T09:47:52.408Z,100.00
2023-03-06T09:53:16.305Z,100.00
2023-03-06T09:58:25.278Z,100.00
2023-03-06T10:03:34.145Z,100.00
2023-03-06T10:08:54.084Z,100.00
2023-03-06T10:14:16.248Z,99.52
2023-03-06T10:19:24.837Z,96.75
2023-03-06T10:24:46.576Z,95.06
2023-03-06T10:30:03.286Z,92.60
2023-03-06T10:35:19.019Z,92.81
2023-03-06T10:40:38.423Z,95.56
2023-03-06T10:45:52.530Z,96.30
2023-03-06T10:51:18.437Z,95.71
2023-03-06T10:56:37.476Z,94.58
2023-03-06T11:01:43.856Z,96.57
2023-03-06T11:06:50.706Z,99.15
2023-03-06T11:12:26.125Z,100.00
2023-03-06T11:17:33.304Z,98.19
2023-03-06T11:22:39.635Z,100.00
2023-03-06T11:27:59.634Z,100.00
2023-03-06T11:33:18.828Z,100.00
2023-03-06T11:38:30.907Z,100.00
2023-03-06T11:43:45.377Z,100.00
2023-03-06T11:48:55.899Z,100.00
2023-03-06T11:54:03.110Z,100.00
2023-03-06T11:59:27.917Z,100.00
2023-03-06T12:04:43.780Z,100.00
2023-03-06T12:09:56.801Z,100.00
2023-03-06T12:15:22.772Z,100.00
2023-03-06T12:20:46.513Z,100.00
2023-03-06T12:26:00.649Z,100.00
2023-03-06T12:31:39.042Z,100.00
2023-03-06T12:36:56.820Z,100.00
2023-03-06T12:42:23.827Z,100.00
2023-03-06T12:47:40.410Z,100.00
2023-03-06T12:52:46.201Z,100.00
2023-03-06T12:58:01.783Z,100.00
2023-03-06T13:03:20.332Z,100.00
2023-03-06T13:08:55.585Z,100.00
2023-03-06T13:14:05.532Z,100.00
2023-03-06T13:19:23.021Z,100.00
2023-03-06T13:24:37.364Z,100.00
2023-03-06T13:30:18.400Z,100.00
2023-03-06T13:35:58.795Z,100.00
2023-03-06T13:41:38.414Z,100.00
2023-03-06T13:46:44.195Z,100.00
2023-03-06T13:52:10.393Z,100.00
2023-03-06T13:57:38.362Z,100.00
2023-03-06T14:03:04.140Z,100.00
2023-03-06T14:08:29.952Z,100.00
2023-03-06T14:14:03.670Z,100.00
2023-03-06T14:19:22.208Z,100.00
2023-03-06T14:24:38.260Z,100.00
2023-03-06T14:29:47.687Z,100.00
2023-03-06T14:34:55.048Z,100.00
2023-03-06T14:40:03.929Z,100.00
2023-03-06T14:45:18.897Z,100.00
2023-03-06T14:50:28.239Z,100.00
2023-03-06T14:55:38.910Z,100.00
2023-03-06T15:00:49.616Z,100.00
2023-03-06T15:06:17.506Z,100.00
2023-03-06T15:11:28.741Z,100.00
2023-03-06T15:16:35.387Z,100.00
2023-03-06T15:21:41.801Z,100.00
2023-03-06T15:26:56.012Z,100.00
2023-03-06T15:32:16.957Z,100.00
2023-03-06T15:37:28.607Z,100.00
2023-03-06T15:42:39.799Z,100.00
2023-03-06T15:47:45.972Z,100.00
2023-03-06T15:52:55.026Z,100.00
2023-03-06T15:58:05.534Z,100.00
2023-03-06T16:03:13.138Z,100.00
2023-03-06T16:08:18.145Z,100.00
2023-03-06T16:13:30.129Z,100.00
2023-03-06T16:18:35.527Z,100.00
2023-03-06T16:23:45.290Z,100.00
2023-03-06T16:28:53.116Z,100.00
2023-03-06T16:34:00.511Z,100.00
2023-03-06T16:39:06.307Z,100.00
2023-03-06T16:44:16.329Z,100.00
2023-03-06T16:49:23.943Z,100.00
2023-03-06T16:54:28.893Z,100.00
2023-03-06T16:59:36.544Z,100.00
2023-03-06T17:04:43.020Z,100.00
2023-03-06T17:09:50.258Z,100.00
2023-03-06T17:15:05.533Z,100.00
2023-03-06T17:20:15.541Z,100.00
2023-03-06T17:25:22.103Z,100.00
2023-03-06T17:30:31.104Z,100.00
2023-03-06T17:35:38.030Z,100.00
2023-03-06T17:40:43.130Z,100.00
2023-03-06T17:45:50.838Z,100.00
2023-03-06T17:50:57.042Z,100.00
2023-03-06T17:56:02.363Z,100.00
2023-03-06T18:01:16.662Z,100.00
2023-03-06T18:06:22.303Z,100.00
2023-03-06T18:11:27.930Z,100.00
2023-03-06T18:16:35.963Z,100.00
2023-03-06T18:21:41.129Z,100.00
2023-03-06T18:26:46.403Z,100.00
2023-03-06T18:31:54.081Z,100.00
2023-03-06T18:36:59.151Z,100.00
2023-03-06T18:42:04.152Z,100.00
2023-03-06T18:47:11.902Z,100.00
2023-03-06T18:52:16.976Z,100.00
2023-03-06T18:57:22.549Z,100.00
2023-03-06T19:02:30.200Z,100.00
2023-03-06T19:07:35.267Z,100.00
2023-03-06T19:12:40.297Z,100.00
2023-03-06T19:17:51.688Z,100.00
2023-03-06T19:22:59.301Z,100.00
2023-03-06T19:28:06.356Z,100.00
2023-03-06T19:33:15.732Z,100.00
2023-03-06T19:38:20.844Z,100.00
2023-03-06T19:43:25.966Z,100.00
2023-03-06T19:48:33.573Z,100.00
2023-03-06T19:53:38.987Z,100.00
2023-03-06T19:58:44.364Z,100.00
2023-03-06T20:03:52.367Z,100.00
2023-03-06T20:08:58.121Z,100.00
2023-03-06T20:14:05.077Z,100.00
2023-03-06T20:19:13.880Z,100.00
2023-03-06T20:24:19.475Z,100.00
2023-03-06T20:29:25.501Z,100.00
2023-03-06T20:34:33.710Z,100.00
2023-03-06T20:39:39.348Z,100.00
2023-03-06T20:44:44.403Z,100.00
2023-03-06T20:49:52.379Z,100.00
2023-03-06T20:54:58.799Z,100.00
2023-03-06T21:00:04.569Z,100.00
2023-03-06T21:05:13.052Z,100.00
2023-03-06T21:10:18.470Z,100.00
2023-03-06T21:15:27.243Z,100.00
2023-03-06T21:20:34.862Z,100.00
2023-03-06T21:25:50.236Z,100.00
2023-03-06T21:30:55.276Z,100.00
2023-03-06T21:36:03.546Z,100.00
2023-03-06T21:41:13.453Z,100.00
2023-03-06T21:46:18.494Z,100.00
2023-03-06T21:51:27.029Z,100.00
2023-03-06T21:56:33.991Z,100.00
2023-03-06T22:01:42.709Z,100.00
2023-03-06T22:06:50.359Z,100.00
2023-03-06T22:11:55.410Z,100.00
2023-03-06T22:17:01.583Z,100.00
2023-03-06T22:22:10.738Z,100.00
2023-03-06T22:27:15.869Z,100.00
2023-03-06T22:32:20.822Z,100.00
2023-03-06T22:37:28.551Z,100.00
2023-03-06T22:42:36.409Z,100.00
2023-03-06T22:47:44.204Z,100.00
2023-03-06T22:52:52.911Z,100.00
2023-03-06T22:57:57.892Z,100.00
2023-03-06T23:03:02.973Z,100.00
2023-03-06T23:08:10.989Z,100.00
2023-03-06T23:13:16.192Z,100.00
2023-03-06T23:18:43.487Z,100.00
2023-03-06T23:24:10.592Z,100.00
2023-03-06T23:29:15.569Z,100.00
2023-03-06T23:34:20.506Z,100.00
2023-03-06T23:39:28.115Z,100.00
2023-03-06T23:44:33.263Z,100.00
2023-03-06T23:49:38.348Z,100.00
2023-03-06T23:54:45.902Z,100.00
2023-03-06T23:59:50.997Z,100.00
